»·PEaware :: N123YN L88-KSBP

N123YN :: L88-KSBP

FLIGHT INFORMATION

Flight Status: Arrived
Operator: Privately registered:
United States
More flights under this callsign
Pilot: Yam N. (22972)
Aircraft: CESSNA 172 SKYHAWK
(C172)
More flights by this aircraft type
Origin: L88 New Cuyama
United States
Destination: KSBP San Luis Co Regl
United States
More flights between these airports :: More routes between these airports
Route:
File this flight plan on PilotEdge
Remarks:
Altitude:
(Current/Filed)
4,500ft
Speed:
(Current/Filed)
100kts
Departed: 12-Jan-19 05:31 PM
Arrived: 12-Jan-19 06:00 PM
Distance/Time
Traveled:
50nm/0:29
Distance/Time
To Go:
Arrived

Flight Plot

Page will automatically refresh every two minutes.


Map Options




Map Legend


Flown Route
Filed Route
Departure Airport
Arrival Airport
Navaid (VOR, NDB)
Fix

Horizontal Profiles

Position Reports

Time Latitude Longitude Heading Altitude Ground
Speed
12-Jan-19 17:13 34.943910 -119.690804 202 2149ft 0kts
12-Jan-19 17:14 34.943910 -119.690804 202 2149ft 0kts
12-Jan-19 17:15 34.943910 -119.690804 202 2149ft 0kts
12-Jan-19 17:16 34.943910 -119.690804 202 2149ft 0kts
12-Jan-19 17:17 34.943910 -119.690804 202 2149ft 0kts
12-Jan-19 17:18 34.943910 -119.690804 202 2149ft 0kts
12-Jan-19 17:19 34.943910 -119.690804 202 2149ft 0kts
12-Jan-19 17:20 34.943910 -119.690804 202 2149ft 0kts
12-Jan-19 17:21 34.943910 -119.690804 202 2149ft 0kts
12-Jan-19 17:22 34.943910 -119.690804 202 2149ft 0kts
12-Jan-19 17:23 34.943910 -119.690804 202 2149ft 0kts
12-Jan-19 17:24 34.942626 -119.691097 114 2152ft 10kts
12-Jan-19 17:25 34.942516 -119.690875 121 2154ft 0kts
12-Jan-19 17:26 34.942377 -119.690782 169 2154ft 5kts
12-Jan-19 17:27 34.940141 -119.686067 116 2173ft 19kts
12-Jan-19 17:28 34.938152 -119.681189 114 2200ft 14kts
12-Jan-19 17:29 34.937718 -119.680122 294 2205ft 0kts
12-Jan-19 17:30 34.939342 -119.684081 296 2185ft 76kts
12-Jan-19 17:31 34.948470 -119.711685 290 2899ft 95kts
12-Jan-19 17:32 34.956390 -119.744716 284 3458ft 107kts
12-Jan-19 17:33 34.967161 -119.779106 295 3964ft 109kts
12-Jan-19 17:34 34.980419 -119.811860 298 4455ft 105kts
12-Jan-19 17:35 34.993193 -119.841533 293 4946ft 92kts
12-Jan-19 17:36 35.004235 -119.874190 293 4578ft 111kts
12-Jan-19 17:37 35.015766 -119.907468 293 4508ft 104kts
12-Jan-19 17:38 35.027643 -119.940601 292 4499ft 106kts
12-Jan-19 17:39 35.040533 -119.974223 298 4506ft 109kts
12-Jan-19 17:40 35.055750 -120.006873 303 4500ft 110kts
12-Jan-19 17:41 35.073384 -120.037907 304 4503ft 111kts
12-Jan-19 17:42 35.082763 -120.071181 276 4493ft 95kts
12-Jan-19 17:43 35.085715 -120.104522 275 4507ft 111kts
12-Jan-19 17:44 35.092498 -120.141481 287 4506ft 113kts
12-Jan-19 17:45 35.104034 -120.177970 292 4486ft 113kts
12-Jan-19 17:46 35.116230 -120.210628 296 4507ft 106kts
12-Jan-19 17:47 35.126451 -120.247335 286 4507ft 115kts
12-Jan-19 17:48 35.134652 -120.285934 282 4511ft 123kts
12-Jan-19 17:49 35.143634 -120.327211 282 4506ft 126kts
12-Jan-19 17:50 35.152579 -120.368660 282 4500ft 124kts
12-Jan-19 17:51 35.162648 -120.407354 285 4497ft 115kts
12-Jan-19 17:53 35.172573 -120.443122 286 4494ft 111kts
12-Jan-19 17:54 35.182658 -120.479524 285 4376ft 114kts
12-Jan-19 17:55 35.192079 -120.515143 284 3624ft 109kts
12-Jan-19 17:56 35.200361 -120.551041 286 2784ft 106kts
12-Jan-19 17:57 35.209477 -120.582587 288 1962ft 91kts
12-Jan-19 17:58 35.219310 -120.608936 301 1467ft 75kts
12-Jan-19 17:59 35.231415 -120.630683 303 508ft 83kts
12-Jan-19 18:00 35.239827 -120.644036 34 215ft 0kts
12-Jan-19 18:01 35.239929 -120.643884 73 215ft 0kts
12-Jan-19 18:02 35.238783 -120.639778 21 215ft 0kts
12-Jan-19 18:03 35.238783 -120.639778 21 215ft 0kts
12-Jan-19 18:04 35.238783 -120.639778 21 215ft 0kts

Navigation Log

Ident Type
Flight plan parsing failed, navigation log unavailable